Airfield :
LOGIN :

Register | Disclaimer

   EN    FR    IT 

 










Legend :    VFR   Marginal VFR   IFR   Intensive IFR   Very Intensive IFR
Visi :
Ceiling :
>= 8 km
>= 3000ft
5 to 8 km
1000 to 3000 ft
1500m to 5 km
500 to 1000 ft
800 to 1500m
200 to 500 ft
< 800m
< 200 ft
Symbols :   Thunderstorms  Fog  Heavy snow  Heavy precipitations  Wind > 20 kt
SIGMETs :     Misc.  Thunderstorms  Icing  Turbulence  Mountain Waves  Volcanic Ashes






- Airport Elevation : 12 ft
- IATA code : NCE


LFMN - Nice

CURRENT METAR :
  • 110430Z 04006KT 9999 -RA SCT033 BKN066 10/09 Q1013

EXPIRED METARs :
  • 110400Z 04008KT 9999 -RA SCT030 BKN066 11/09 Q1013 TEMPO 4000 RA
  • 110330Z 01006KT 330V040 6000 -RA BKN030 BKN066 10/08 Q1013 TEMPO 4000 RA
  • 110300Z 01009KT 320V030 6000 -RA BKN030 BKN066 10/08 Q1013 TEMPO 4000 RA
  • 110230Z 03011KT 6000 -RA SCT032 BKN053 10/08 Q1013 TEMPO 4000 RA
  • 110200Z 03011KT 6000 -RA BKN032 10/08 Q1013 TEMPO 4000 RA

TAF TAF LFMN
Valid from the 11 at 03:00 until the 12 at 09:00 UTC


110200Z 1103/1209 01008KT 9999 SCT015 OVC030
TEMPO 1103/1105 4000 RA
PROB40
TEMPO 1105/1118 09010KT BKN014
TEMPO 1120/1206 4000 RA BKN012
PROB30
TEMPO 1201/1205 2000 TSRA BKN008 SCT015CB
BECMG 1206/1208 CAVOK
ATIS : +33 4 93 17 21 16



MET'MAP, your aeronautical weather chart ! - Copyright ORBIFLY December 2007 - Disclaimer

ORBIFLY MET'MAP TEAM :

Programming & Development : Alexandra Zaïnal
Concept & original design : Baudouin d'Aumeries
Assistance for programming : Marc-Olivier Méhu
Technical & hardware support : Manuel Goepfert

Contact : metmap@orbifly.com




SOURCES & CREDITS :

   NOAA